createdAt,value
2019-05-14T01:11:22.154Z,84.60
2019-05-14T01:13:52.795Z,84.30
2019-05-14T01:16:24.048Z,84.10
2019-05-14T01:18:55.263Z,84.00
2019-05-14T01:21:26.506Z,83.90
2019-05-14T01:24:02.075Z,84.00
2019-05-14T01:26:33.172Z,83.80
2019-05-14T01:29:04.798Z,83.70
2019-05-14T01:31:35.840Z,83.80
2019-05-14T01:34:06.959Z,83.60
2019-05-14T01:36:38.408Z,83.50
2019-05-14T01:39:11.869Z,83.50
2019-05-14T01:41:42.244Z,83.50
2019-05-14T01:44:13.575Z,83.50
2019-05-14T01:46:44.591Z,83.70
2019-05-14T01:49:15.518Z,83.70
2019-05-14T01:51:46.432Z,83.80
2019-05-14T01:54:17.592Z,83.60
2019-05-14T01:56:51.321Z,83.60
2019-05-14T01:59:21.487Z,83.40
2019-05-14T02:01:52.501Z,83.40
2019-05-14T02:04:23.618Z,83.10
2019-05-14T02:06:54.690Z,82.90
2019-05-14T02:09:25.822Z,82.90
2019-05-14T02:11:56.831Z,82.90
2019-05-14T02:14:27.926Z,82.80
2019-05-14T02:17:01.645Z,82.80
2019-05-14T02:19:31.850Z,82.70
2019-05-14T02:22:03.124Z,82.50
2019-05-14T02:24:34.072Z,82.50
2019-05-14T02:27:04.917Z,82.40
2019-05-14T02:29:55.686Z,82.10
2019-05-14T02:32:29.597Z,82.10
2019-05-14T02:34:58.930Z,82.00
2019-05-14T02:37:30.253Z,82.30
2019-05-14T02:40:01.524Z,82.00
2019-05-14T02:42:32.487Z,81.90
2019-05-14T02:45:04.790Z,81.80
2019-05-14T02:47:34.881Z,81.70
2019-05-14T02:50:09.689Z,82.30
2019-05-14T02:52:40.222Z,81.80
2019-05-14T02:55:11.309Z,81.70
2019-05-14T02:57:42.282Z,81.70
2019-05-14T03:00:13.316Z,82.00
2019-05-14T03:02:44.628Z,82.20
2019-05-14T03:07:54.115Z,82.30
2019-05-14T03:10:25.115Z,82.50
2019-05-14T03:12:58.842Z,82.50
2019-05-14T03:15:29.141Z,82.50
2019-05-14T03:18:00.736Z,82.40
2019-05-14T03:20:31.768Z,82.50
2019-05-14T03:23:08.666Z,82.40
2019-05-14T03:25:36.036Z,82.20
2019-05-14T03:28:09.249Z,82.00
2019-05-14T03:30:42.333Z,81.70
2019-05-14T03:33:13.150Z,81.60
2019-05-14T03:35:50.029Z,81.50
2019-05-14T03:38:15.669Z,81.40
2019-05-14T03:40:49.406Z,81.20
2019-05-14T03:43:19.911Z,81.10
2019-05-14T03:45:51.099Z,81.00
2019-05-14T03:48:22.219Z,80.70
2019-05-14T03:50:53.522Z,80.60
2019-05-14T03:53:24.559Z,80.50
2019-05-14T03:55:55.704Z,80.30
2019-05-14T03:58:29.635Z,80.00
2019-05-14T04:01:00.271Z,79.90
2019-05-14T04:03:32.903Z,79.50
2019-05-14T04:06:04.274Z,79.50
2019-05-14T04:08:35.361Z,79.40
2019-05-14T04:11:09.342Z,79.10
2019-05-14T04:13:40.607Z,78.90
2019-05-14T04:16:10.911Z,78.90
2019-05-14T04:18:41.897Z,78.40
2019-05-14T04:21:14.768Z,78.20
2019-05-14T04:23:50.854Z,78.20
2019-05-14T04:26:22.259Z,78.00
2019-05-14T04:28:53.482Z,77.70
2019-05-14T04:31:24.463Z,78.40
2019-05-14T04:33:59.252Z,77.50
2019-05-14T04:36:30.572Z,77.40
2019-05-14T04:39:02.028Z,77.20
2019-05-14T04:41:33.099Z,77.20
2019-05-14T04:44:04.093Z,77.10
2019-05-14T04:46:35.086Z,77.10
2019-05-14T04:49:09.331Z,77.10
2019-05-14T04:51:39.673Z,77.00
2019-05-14T04:54:11.173Z,76.60
2019-05-14T04:56:42.199Z,76.50
2019-05-14T04:59:13.074Z,76.60
2019-05-14T05:01:44.074Z,76.40
2019-05-14T05:04:15.122Z,75.90
2019-05-14T05:06:45.903Z,75.80
2019-05-14T05:09:19.760Z,75.60
2019-05-14T05:11:49.819Z,75.50
2019-05-14T05:14:23.620Z,74.20
2019-05-14T05:16:52.237Z,75.00
2019-05-14T05:19:23.122Z,75.00
2019-05-14T05:21:54.234Z,74.90
2019-05-14T05:24:28.700Z,74.80
2019-05-14T05:26:59.900Z,74.90
2019-05-14T05:29:31.645Z,74.90
2019-05-14T05:32:03.194Z,74.60
2019-05-14T05:34:34.797Z,74.40
2019-05-14T05:37:08.432Z,74.40
2019-05-14T05:39:39.628Z,73.90
2019-05-14T05:42:11.310Z,73.80
2019-05-14T05:44:42.890Z,73.60
2019-05-14T05:47:14.387Z,73.40
2019-05-14T05:49:45.534Z,73.10
2019-05-14T05:52:18.911Z,73.30
2019-05-14T05:54:49.226Z,73.40
2019-05-14T05:57:20.159Z,73.20
2019-05-14T05:59:51.399Z,73.20
2019-05-14T06:02:22.586Z,72.80
2019-05-14T06:04:53.839Z,73.00
2019-05-14T06:07:24.778Z,72.80
2019-05-14T06:09:58.868Z,72.50
2019-05-14T06:12:29.549Z,72.40
2019-05-14T06:15:00.540Z,72.00
2019-05-14T06:17:31.544Z,71.70
2019-05-14T06:20:02.490Z,71.80
2019-05-14T06:22:33.391Z,71.40
2019-05-14T06:25:04.383Z,71.70
2019-05-14T06:27:35.245Z,71.70
2019-05-14T06:30:09.139Z,71.70
2019-05-14T06:32:40.180Z,71.50
2019-05-14T06:35:10.999Z,71.20
2019-05-14T06:37:41.975Z,71.30
2019-05-14T06:40:12.877Z,71.20
2019-05-14T06:42:43.862Z,71.20
2019-05-14T06:45:14.823Z,71.30
2019-05-14T06:47:45.811Z,71.00
2019-05-14T06:50:18.856Z,70.90
2019-05-14T06:52:49.304Z,70.80
2019-05-14T06:55:20.287Z,70.80
2019-05-14T06:57:51.281Z,70.80
2019-05-14T07:00:22.266Z,70.80
2019-05-14T07:02:53.317Z,71.10
2019-05-14T07:05:24.467Z,70.90
2019-05-14T07:10:44.275Z,70.80
2019-05-14T07:13:15.283Z,70.90
2019-05-14T07:15:48.699Z,70.50
2019-05-14T07:18:19.001Z,70.50
2019-05-14T07:20:50.124Z,70.20
2019-05-14T07:23:21.113Z,70.20
2019-05-14T07:25:52.215Z,70.10
2019-05-14T07:28:23.134Z,70.00
2019-05-14T07:30:54.053Z,70.80
2019-05-14T07:33:25.442Z,69.80
2019-05-14T07:35:59.134Z,69.60
2019-05-14T07:38:28.378Z,69.80
2019-05-14T07:41:00.069Z,69.10
2019-05-14T07:43:31.332Z,69.80
2019-05-14T07:46:02.202Z,69.90
2019-05-14T07:48:33.090Z,70.00
2019-05-14T07:51:04.226Z,70.00
2019-05-14T07:53:39.034Z,70.00
2019-05-14T07:56:06.400Z,70.10
2019-05-14T07:58:38.635Z,69.90
2019-05-14T08:01:09.867Z,70.30
2019-05-14T08:03:40.804Z,70.40
2019-05-14T08:06:12.015Z,70.30
2019-05-14T08:08:43.123Z,70.60
2019-05-14T08:11:13.943Z,69.90
2019-05-14T08:13:44.944Z,70.00
2019-05-14T08:16:18.488Z,69.90
2019-05-14T08:18:48.719Z,69.80
2019-05-14T08:21:19.971Z,69.40
2019-05-14T08:23:51.291Z,69.40
2019-05-14T08:26:22.304Z,69.50
2019-05-14T08:28:53.313Z,69.60
2019-05-14T08:31:25.147Z,69.50
2019-05-14T08:33:58.977Z,69.60
2019-05-14T08:36:29.751Z,70.20
2019-05-14T08:39:01.296Z,70.40
2019-05-14T08:41:33.451Z,70.50
2019-05-14T08:44:03.407Z,70.80
2019-05-14T08:46:34.605Z,70.40
2019-05-14T08:49:05.683Z,70.70
2019-05-14T08:51:38.836Z,71.10
2019-05-14T08:54:10.072Z,71.00
2019-05-14T08:56:40.419Z,71.00
2019-05-14T08:59:11.279Z,69.60
2019-05-14T09:01:57.172Z,70.90
2019-05-14T09:04:13.361Z,71.20
2019-05-14T09:06:44.357Z,70.50
2019-05-14T09:09:15.468Z,71.20
2019-05-14T09:11:50.147Z,71.30
2019-05-14T09:14:18.880Z,71.00
2019-05-14T09:16:50.985Z,70.70
2019-05-14T09:19:21.967Z,70.80
2019-05-14T09:21:52.898Z,70.80
2019-05-14T09:24:24.132Z,70.90
2019-05-14T09:26:55.127Z,70.70
2019-05-14T09:30:09.331Z,70.50
2019-05-14T09:32:00.946Z,70.60
2019-05-14T09:34:31.879Z,70.30
2019-05-14T09:37:03.351Z,70.20
2019-05-14T09:39:34.267Z,70.10
2019-05-14T09:42:05.274Z,70.10
2019-05-14T09:44:38.570Z,70.00
2019-05-14T09:47:08.824Z,69.60
2019-05-14T09:49:39.800Z,69.00
2019-05-14T09:52:10.692Z,69.50
2019-05-14T09:54:44.077Z,69.50
2019-05-14T09:57:15.518Z,69.40
2019-05-14T09:59:47.976Z,69.30
2019-05-14T10:02:18.749Z,69.10
2019-05-14T10:04:49.809Z,68.90
2019-05-14T10:07:20.940Z,69.00
2019-05-14T10:09:51.873Z,68.80
2019-05-14T10:12:22.705Z,68.50
2019-05-14T10:14:53.819Z,68.30
2019-05-14T10:17:24.831Z,68.40
2019-05-14T10:19:56.072Z,68.60
2019-05-14T10:22:28.544Z,68.30
2019-05-14T10:24:59.507Z,68.40
2019-05-14T10:27:30.410Z,68.20
2019-05-14T10:30:01.276Z,68.80
2019-05-14T10:32:32.105Z,67.90
2019-05-14T10:35:03.266Z,68.10
2019-05-14T10:37:34.035Z,67.40
2019-05-14T10:40:06.658Z,67.50
2019-05-14T10:42:40.865Z,67.70
2019-05-14T10:45:13.103Z,67.70
2019-05-14T10:47:44.211Z,68.10
2019-05-14T10:50:15.298Z,68.20
2019-05-14T10:52:48.813Z,68.50
2019-05-14T10:55:18.901Z,68.60
2019-05-14T10:57:54.196Z,69.00
2019-05-14T11:00:22.374Z,68.90
2019-05-14T11:02:53.423Z,69.10
2019-05-14T11:05:24.534Z,69.10
2019-05-14T11:07:55.365Z,69.30
2019-05-14T11:10:29.550Z,69.30
2019-05-14T11:12:59.403Z,69.40
2019-05-14T11:15:30.742Z,69.70
2019-05-14T11:18:03.409Z,69.90
2019-05-14T11:20:34.420Z,70.20
2019-05-14T11:23:05.900Z,70.30
2019-05-14T11:25:38.331Z,70.70
2019-05-14T11:28:12.598Z,70.80
2019-05-14T11:30:43.523Z,71.10
2019-05-14T11:33:14.745Z,71.20
2019-05-14T11:35:45.727Z,71.20
2019-05-14T11:38:28.533Z,71.40
2019-05-14T11:40:49.605Z,71.50
2019-05-14T11:43:20.327Z,72.10
2019-05-14T11:45:51.286Z,71.80
2019-05-14T11:48:22.358Z,72.40
2019-05-14T11:50:53.285Z,71.80
2019-05-14T11:53:38.508Z,71.70
2019-05-14T11:56:09.786Z,71.60
2019-05-14T11:58:40.592Z,71.60
2019-05-14T12:01:29.592Z,71.70
2019-05-14T12:03:59.775Z,71.70
2019-05-14T12:09:23.653Z,71.70
2019-05-14T12:11:54.768Z,71.80
2019-05-14T12:14:25.857Z,71.80
2019-05-14T12:16:59.713Z,71.80
2019-05-14T12:19:28.981Z,72.10
2019-05-14T12:22:07.079Z,72.10
2019-05-14T12:24:32.012Z,72.00
2019-05-14T12:27:03.192Z,72.00
2019-05-14T12:29:34.048Z,72.20
2019-05-14T12:32:04.903Z,72.00
2019-05-14T12:34:38.494Z,72.20
2019-05-14T12:37:09.111Z,72.20
2019-05-14T12:39:39.552Z,72.40
2019-05-14T12:42:11.248Z,72.50
2019-05-14T12:44:42.440Z,72.40
2019-05-14T12:47:13.777Z,72.10
2019-05-14T12:49:48.338Z,72.00
2019-05-14T12:52:25.504Z,72.20
2019-05-14T12:54:51.594Z,72.50
2019-05-14T12:57:22.697Z,73.10
2019-05-14T12:59:54.750Z,74.10
2019-05-14T13:02:25.658Z,74.40
2019-05-14T13:04:59.989Z,74.80
2019-05-14T13:07:29.462Z,75.30
2019-05-14T13:10:00.510Z,75.60
2019-05-14T13:12:31.399Z,76.00
2019-05-14T13:15:02.393Z,76.00
2019-05-14T13:17:33.750Z,76.20
2019-05-14T13:20:05.713Z,76.30
2019-05-14T13:22:44.923Z,76.20
2019-05-14T13:25:10.754Z,76.40
2019-05-14T13:27:41.726Z,76.50
2019-05-14T13:30:14.992Z,76.90
2019-05-14T13:32:48.548Z,76.60
2019-05-14T13:35:19.611Z,76.60
2019-05-14T13:37:51.419Z,76.50
2019-05-14T13:40:22.558Z,76.80
2019-05-14T13:42:53.668Z,76.90
2019-05-14T13:45:24.636Z,76.70
2019-05-14T13:47:55.767Z,76.60
2019-05-14T13:50:29.260Z,76.50
2019-05-14T13:53:02.783Z,76.80
2019-05-14T13:55:31.580Z,77.30
2019-05-14T13:58:03.033Z,77.00
2019-05-14T14:00:34.060Z,77.20
2019-05-14T14:03:04.838Z,77.40
2019-05-14T14:05:38.911Z,77.50
2019-05-14T14:08:08.762Z,77.70
2019-05-14T14:10:44.853Z,78.70
2019-05-14T14:13:11.477Z,78.10
2019-05-14T14:15:42.984Z,79.00
2019-05-14T14:18:14.147Z,78.30
2019-05-14T14:20:45.060Z,77.90
2019-05-14T14:23:21.853Z,78.00
2019-05-14T14:25:53.713Z,78.00
2019-05-14T14:28:19.851Z,78.30
2019-05-14T14:30:51.817Z,78.50
2019-05-14T14:33:22.742Z,78.70
2019-05-14T14:35:53.767Z,78.70
2019-05-14T14:38:25.402Z,78.30
2019-05-14T14:40:58.217Z,78.80
2019-05-14T14:43:29.510Z,79.10
2019-05-14T14:46:00.782Z,79.30
2019-05-14T14:48:31.606Z,79.30
2019-05-14T14:51:02.746Z,79.20
2019-05-14T14:53:51.486Z,79.60
2019-05-14T14:56:09.054Z,79.30
2019-05-14T14:58:39.017Z,79.60
2019-05-14T15:01:09.382Z,79.80
2019-05-14T15:03:40.476Z,79.20
2019-05-14T15:06:11.662Z,79.20
2019-05-14T15:08:43.042Z,79.50
2019-05-14T15:11:13.951Z,79.70
2019-05-14T15:13:45.014Z,79.70
2019-05-14T15:16:16.046Z,79.80
2019-05-14T15:18:49.816Z,79.50
2019-05-14T15:21:19.616Z,79.80
2019-05-14T15:24:06.176Z,79.50
2019-05-14T15:26:22.789Z,79.40
2019-05-14T15:28:53.945Z,79.80
2019-05-14T15:31:24.899Z,79.70
2019-05-14T15:33:55.769Z,80.60
2019-05-14T15:36:26.659Z,79.60
2019-05-14T15:38:59.170Z,79.30
2019-05-14T15:41:30.390Z,79.50
2019-05-14T15:44:02.339Z,79.80
2019-05-14T15:46:33.289Z,79.80
2019-05-14T15:49:04.260Z,79.80
2019-05-14T15:51:35.366Z,79.80
2019-05-14T15:54:23.651Z,79.80
2019-05-14T15:56:39.506Z,79.80
2019-05-14T15:59:10.510Z,79.70
2019-05-14T16:01:41.453Z,79.80
2019-05-14T16:04:15.389Z,79.70
2019-05-14T16:06:48.727Z,79.70
2019-05-14T16:09:19.453Z,79.70
2019-05-14T16:11:50.691Z,79.80
2019-05-14T16:14:23.391Z,79.90
2019-05-14T16:46:38.577Z,80.00
2019-05-14T16:49:09.486Z,79.60
2019-05-14T16:51:41.232Z,79.80
2019-05-14T16:54:12.898Z,79.70
2019-05-14T16:56:50.246Z,79.80
2019-05-14T16:59:40.651Z,80.00
2019-05-14T17:02:12.095Z,80.00
2019-05-14T17:04:43.367Z,80.30
2019-05-14T17:07:14.637Z,80.00
2019-05-14T17:09:45.759Z,80.20
2019-05-14T17:12:20.153Z,80.20
2019-05-14T17:14:49.885Z,80.20
2019-05-14T17:17:20.959Z,80.00
2019-05-14T17:19:52.198Z,80.30
2019-05-14T17:22:29.176Z,79.90
2019-05-14T17:24:58.641Z,80.50
2019-05-14T17:27:29.965Z,80.50
2019-05-14T17:30:01.192Z,80.20
2019-05-14T17:32:32.550Z,80.40
2019-05-14T17:35:04.342Z,80.70
2019-05-14T17:37:36.310Z,81.40
2019-05-14T17:40:09.322Z,80.60
2019-05-14T17:42:40.753Z,80.80
2019-05-14T17:45:12.297Z,80.30
2019-05-14T17:47:43.352Z,80.50
2019-05-14T17:50:14.807Z,80.50
2019-05-14T17:52:46.214Z,80.70
2019-05-14T17:55:18.779Z,80.60
2019-05-14T17:57:57.532Z,80.40
2019-05-14T18:00:22.724Z,80.20
2019-05-14T18:02:54.037Z,80.10
2019-05-14T18:05:25.143Z,80.10
2019-05-14T18:07:59.126Z,79.90
2019-05-14T18:10:28.940Z,80.00
2019-05-14T18:13:00.502Z,79.90
2019-05-14T18:15:31.660Z,79.80
2019-05-14T18:18:04.658Z,79.70
2019-05-14T18:20:36.180Z,79.80
2019-05-14T18:23:11.474Z,79.80
2019-05-14T18:25:39.571Z,79.80
2019-05-14T18:28:10.878Z,79.20
2019-05-14T18:30:42.119Z,79.80
2019-05-14T18:33:13.346Z,79.70
2019-05-14T18:35:47.458Z,79.90
2019-05-14T18:38:19.423Z,80.10
2019-05-14T18:40:50.125Z,80.50
2019-05-14T18:43:21.516Z,80.70
2019-05-14T18:45:52.749Z,81.00
2019-05-14T18:48:25.168Z,81.00
2019-05-14T18:50:59.052Z,81.30
2019-05-14T18:53:29.020Z,81.50
2019-05-14T18:56:16.126Z,81.60
2019-05-14T18:58:32.710Z,81.80
2019-05-14T19:01:04.320Z,81.90
2019-05-14T19:03:39.283Z,82.00
